createdAt,value
2019-02-09T00:03:36.409Z,0.19
2019-02-09T00:07:44.307Z,0.10
2019-02-09T00:11:52.208Z,0.14
2019-02-09T00:15:59.905Z,0.21
2019-02-09T00:20:08.240Z,0.00
2019-02-09T00:24:16.154Z,-0.24
2019-02-09T00:28:24.126Z,-0.12
2019-02-09T00:32:31.613Z,0.03
2019-02-09T00:36:39.504Z,-0.37
2019-02-09T00:40:47.232Z,-0.39
2019-02-09T00:44:54.718Z,-0.20
2019-02-09T00:49:02.483Z,-0.20
2019-02-09T00:53:10.377Z,-0.24
2019-02-09T00:57:18.285Z,-0.24
2019-02-09T01:01:26.180Z,-0.18
2019-02-09T01:05:37.286Z,-0.31
2019-02-09T01:09:44.797Z,-0.19
2019-02-09T01:13:52.410Z,-0.15
2019-02-09T01:18:00.017Z,-0.14
2019-02-09T01:22:07.667Z,-0.20
2019-02-09T01:26:15.644Z,-0.07
2019-02-09T01:30:24.901Z,-0.02
2019-02-09T01:34:32.406Z,0.04
2019-02-09T01:38:40.024Z,-0.01
2019-02-09T01:42:47.821Z,0.03
2019-02-09T01:46:55.424Z,0.02
2019-02-09T01:51:03.067Z,-0.05
2019-02-09T01:55:10.918Z,-0.07
2019-02-09T01:59:18.795Z,-0.17
2019-02-09T02:03:26.706Z,-0.11
2019-02-09T02:07:34.316Z,-0.21
2019-02-09T02:11:41.918Z,-0.27
2019-02-09T02:15:49.937Z,-0.37
2019-02-09T02:19:57.845Z,-0.55
2019-02-09T02:24:05.463Z,-0.57
2019-02-09T02:28:13.366Z,-0.54
2019-02-09T02:32:21.977Z,-0.51
2019-02-09T02:36:29.985Z,-0.62
2019-02-09T02:40:37.798Z,-0.66
2019-02-09T02:44:45.406Z,-0.69
2019-02-09T02:48:53.389Z,-0.95
2019-02-09T02:53:01.140Z,-0.82
2019-02-09T02:57:09.024Z,-0.88
2019-02-09T03:01:17.535Z,-0.80
2019-02-09T03:05:25.757Z,-0.81
2019-02-09T03:09:33.459Z,-0.77
2019-02-09T03:13:41.372Z,-0.62
2019-02-09T03:17:49.064Z,-0.56
2019-02-09T03:21:56.751Z,-0.67
2019-02-09T03:26:04.765Z,-0.75
2019-02-09T03:30:13.998Z,-0.79
2019-02-09T03:34:21.906Z,-0.98
2019-02-09T03:38:30.025Z,-1.05
2019-02-09T03:42:37.949Z,-0.85
2019-02-09T03:46:46.380Z,-0.92
2019-02-09T03:50:53.904Z,-0.91
2019-02-09T03:55:01.822Z,-1.00
2019-02-09T03:59:09.729Z,-0.92
2019-02-09T04:03:17.930Z,-1.23
2019-02-09T04:07:25.845Z,-1.03
2019-02-09T04:11:33.746Z,-1.20
2019-02-09T04:15:41.441Z,-1.37
2019-02-09T04:19:49.352Z,-1.42
2019-02-09T04:23:57.241Z,-1.32
2019-02-09T04:28:05.257Z,-1.27
2019-02-09T04:32:13.634Z,-1.17
2019-02-09T04:36:21.606Z,-1.03
2019-02-09T04:40:31.115Z,-1.35
2019-02-09T04:44:39.568Z,-1.14
2019-02-09T04:48:47.453Z,-1.06
2019-02-09T04:52:55.663Z,-1.00
2019-02-09T04:57:03.555Z,-1.25
2019-02-09T05:01:13.968Z,-1.16
2019-02-09T05:05:21.173Z,-1.07
2019-02-09T05:09:29.075Z,-1.14
2019-02-09T05:13:36.996Z,-1.17
2019-02-09T05:17:46.751Z,-1.27
2019-02-09T05:21:54.970Z,-1.20
2019-02-09T05:26:02.665Z,-1.26
2019-02-09T05:30:13.962Z,-1.10
2019-02-09T05:34:21.878Z,-1.05
2019-02-09T05:38:29.779Z,-0.72
2019-02-09T05:42:38.274Z,-0.48
2019-02-09T05:46:46.181Z,-0.54
2019-02-09T05:50:54.009Z,-0.54
2019-02-09T05:55:01.504Z,-0.51
2019-02-09T05:59:09.204Z,-0.53
2019-02-09T06:03:17.093Z,-0.40
2019-02-09T06:07:24.999Z,-0.01
2019-02-09T06:11:32.892Z,0.06
2019-02-09T06:15:40.595Z,0.15
2019-02-09T06:19:48.503Z,0.54
2019-02-09T06:23:56.956Z,0.65
2019-02-09T06:28:04.928Z,0.85
2019-02-09T06:32:12.893Z,0.75
2019-02-09T06:36:20.818Z,0.81
2019-02-09T06:40:29.387Z,0.87
2019-02-09T06:44:36.884Z,0.82
2019-02-09T06:48:44.843Z,0.94
2019-02-09T06:52:52.754Z,3.17
2019-02-09T06:57:00.653Z,2.82
2019-02-09T07:01:08.582Z,1.99
2019-02-09T07:05:18.111Z,1.66
2019-02-09T07:09:27.546Z,1.73
2019-02-09T07:13:35.457Z,1.65
2019-02-09T07:17:43.360Z,1.86
2019-02-09T07:21:51.262Z,2.00
2019-02-09T07:25:59.162Z,2.37
2019-02-09T07:30:09.271Z,2.17
2019-02-09T07:34:17.187Z,2.36
2019-02-09T07:38:25.111Z,2.06
2019-02-09T07:42:32.613Z,1.99
2019-02-09T07:46:40.338Z,2.44
2019-02-09T07:50:48.174Z,2.60
2019-02-09T07:54:55.981Z,2.65
2019-02-09T07:59:03.498Z,2.93
2019-02-09T08:03:11.229Z,4.23
2019-02-09T08:07:19.142Z,3.48
2019-02-09T08:11:27.048Z,2.94
2019-02-09T08:15:35.059Z,3.24
2019-02-09T08:19:42.760Z,3.10
2019-02-09T08:23:50.847Z,3.42
2019-02-09T08:27:59.504Z,3.25
2019-02-09T08:32:12.633Z,3.43
2019-02-09T08:36:17.322Z,3.55
2019-02-09T08:40:25.223Z,3.62
2019-02-09T08:44:33.181Z,3.86
2019-02-09T08:48:41.197Z,4.31
2019-02-09T08:52:49.140Z,4.71
2019-02-09T08:56:57.043Z,4.43
2019-02-09T09:01:06.331Z,4.12
2019-02-09T09:05:14.347Z,4.09
2019-02-09T09:09:22.108Z,3.53
2019-02-09T09:13:30.006Z,3.59
2019-02-09T09:17:37.934Z,3.63
2019-02-09T09:21:45.835Z,3.50
2019-02-09T09:25:53.884Z,3.37
2019-02-09T09:30:01.392Z,3.47
2019-02-09T09:34:09.312Z,3.66
2019-02-09T09:38:17.768Z,3.27
2019-02-09T09:42:25.382Z,3.35
2019-02-09T09:46:32.986Z,3.54
2019-02-09T09:50:40.985Z,3.67
2019-02-09T09:54:48.886Z,3.91
2019-02-09T09:58:56.790Z,4.17
2019-02-09T10:03:05.381Z,4.24
2019-02-09T10:07:13.316Z,4.23
2019-02-09T10:11:20.918Z,4.57
2019-02-09T10:15:28.898Z,4.38
2019-02-09T10:19:36.606Z,4.72
2019-02-09T10:23:45.434Z,5.06
2019-02-09T10:27:55.070Z,5.17
2019-02-09T10:32:03.004Z,5.28
2019-02-09T10:36:10.898Z,5.11
2019-02-09T10:40:24.027Z,5.58
2019-02-09T10:44:33.041Z,5.65
2019-02-09T10:48:40.955Z,5.57
2019-02-09T10:52:48.660Z,5.36
2019-02-09T10:56:56.627Z,5.68
2019-02-09T11:01:11.933Z,6.39
2019-02-09T11:05:20.158Z,6.10
2019-02-09T11:09:28.227Z,5.72
2019-02-09T11:13:36.237Z,6.02
2019-02-09T11:17:44.149Z,5.89
2019-02-09T11:21:52.070Z,5.64
2019-02-09T11:25:59.673Z,5.39
2019-02-09T11:30:10.110Z,5.40
2019-02-09T11:34:18.029Z,5.27
2019-02-09T11:38:26.942Z,5.06
2019-02-09T11:42:34.846Z,4.85
2019-02-09T11:46:42.767Z,4.64
2019-02-09T11:50:50.364Z,4.84
2019-02-09T11:54:58.068Z,4.98
2019-02-09T11:59:06.113Z,5.05
2019-02-09T12:03:16.078Z,5.28
2019-02-09T12:07:24.038Z,5.17
2019-02-09T12:11:31.929Z,5.28
2019-02-09T12:15:40.010Z,4.83
2019-02-09T12:19:47.520Z,5.14
2019-02-09T12:23:55.412Z,4.79
2019-02-09T12:28:03.523Z,5.12
2019-02-09T12:32:11.432Z,4.87
2019-02-09T12:36:19.130Z,5.12
2019-02-09T12:40:30.706Z,5.03
2019-02-09T12:44:38.317Z,5.14
2019-02-09T12:48:46.236Z,5.83
2019-02-09T12:52:54.156Z,5.73
2019-02-09T12:57:02.070Z,5.85
2019-02-09T13:01:09.997Z,5.57
2019-02-09T13:05:18.126Z,5.41
2019-02-09T13:09:26.511Z,5.37
2019-02-09T13:13:34.427Z,5.30
2019-02-09T13:17:42.335Z,5.22
2019-02-09T13:21:50.246Z,5.25
2019-02-09T13:25:58.475Z,5.08
2019-02-09T13:30:09.103Z,5.09
2019-02-09T13:34:17.022Z,5.22
2019-02-09T13:38:24.632Z,5.25
2019-02-09T13:42:32.536Z,5.28
2019-02-09T13:46:40.149Z,5.16
2019-02-09T13:50:48.100Z,5.10
2019-02-09T13:54:55.702Z,5.13
2019-02-09T13:59:03.225Z,5.11
2019-02-09T14:03:11.360Z,5.29
2019-02-09T14:07:19.331Z,5.18
2019-02-09T14:11:27.263Z,5.17
2019-02-09T14:15:35.241Z,5.09
2019-02-09T14:19:43.754Z,5.05
2019-02-09T14:23:52.482Z,4.97
2019-02-09T14:28:02.136Z,5.10
2019-02-09T14:32:10.054Z,5.17
2019-02-09T14:36:17.674Z,5.05
2019-02-09T14:40:29.664Z,4.94
2019-02-09T14:44:37.585Z,5.07
2019-02-09T14:48:45.182Z,5.18
2019-02-09T14:52:52.811Z,5.19
2019-02-09T14:57:00.748Z,4.52
2019-02-09T15:01:08.790Z,4.52
2019-02-09T15:05:16.704Z,4.93
2019-02-09T15:09:24.688Z,4.59
2019-02-09T15:13:32.403Z,4.53
2019-02-09T15:17:40.345Z,4.28
2019-02-09T15:21:48.279Z,4.17
2019-02-09T15:25:56.314Z,4.16
2019-02-09T15:30:05.351Z,4.24
2019-02-09T15:34:13.321Z,4.24
2019-02-09T15:38:21.272Z,4.21
2019-02-09T15:42:29.184Z,4.12
2019-02-09T15:46:37.091Z,4.13
2019-02-09T15:50:44.718Z,4.16
2019-02-09T15:54:52.249Z,4.28
2019-02-09T15:59:00.999Z,4.39
2019-02-09T16:03:08.943Z,4.29
2019-02-09T16:07:16.948Z,4.54
2019-02-09T16:11:24.886Z,4.52
2019-02-09T16:15:32.864Z,4.62
2019-02-09T16:19:40.383Z,4.32
2019-02-09T16:23:48.356Z,4.68
2019-02-09T16:27:56.390Z,4.64
2019-02-09T16:32:04.993Z,4.48
2019-02-09T16:36:12.945Z,4.09
2019-02-09T16:40:24.019Z,4.32
2019-02-09T16:44:31.539Z,4.07
2019-02-09T16:48:39.762Z,3.76
2019-02-09T16:52:47.681Z,3.64
2019-02-09T16:56:55.598Z,3.63
2019-02-09T17:01:05.327Z,3.53
2019-02-09T17:05:13.497Z,3.46
2019-02-09T17:09:21.862Z,3.59
2019-02-09T17:13:29.607Z,3.58
2019-02-09T17:17:37.343Z,3.58
2019-02-09T17:21:44.961Z,3.47
2019-02-09T17:25:52.584Z,3.49
2019-02-09T17:30:00.382Z,3.57
2019-02-09T17:34:08.403Z,3.66
2019-02-09T17:38:16.985Z,3.51
2019-02-09T17:42:24.624Z,3.34
2019-02-09T17:46:32.146Z,3.23
2019-02-09T17:50:39.816Z,3.29
2019-02-09T17:54:47.523Z,3.21
2019-02-09T17:58:55.959Z,3.00
2019-02-09T18:03:04.811Z,2.83
2019-02-09T18:07:12.734Z,2.32
2019-02-09T18:11:20.446Z,2.44
2019-02-09T18:15:28.371Z,2.45
2019-02-09T18:19:35.998Z,2.06
2019-02-09T18:23:43.915Z,2.25
2019-02-09T18:27:52.068Z,2.19
2019-02-09T18:31:59.998Z,2.19
2019-02-09T18:36:08.051Z,2.14
2019-02-09T18:40:18.163Z,2.09
2019-02-09T18:44:25.991Z,2.14
2019-02-09T18:48:33.946Z,2.18
2019-02-09T18:52:41.975Z,2.21
2019-02-09T18:56:49.981Z,2.34
2019-02-09T19:00:57.577Z,2.34
2019-02-09T19:05:06.945Z,2.22
2019-02-09T19:09:15.730Z,2.14
2019-02-09T19:13:23.728Z,2.30
2019-02-09T19:17:31.337Z,2.38
2019-02-09T19:21:39.396Z,2.22
2019-02-09T19:25:47.100Z,2.37
2019-02-09T19:29:54.795Z,2.48
2019-02-09T19:34:02.865Z,2.46
2019-02-09T19:38:10.786Z,2.33
2019-02-09T19:42:18.753Z,2.29
2019-02-09T19:46:26.665Z,2.18
2019-02-09T19:50:34.590Z,2.02
2019-02-09T19:54:43.102Z,1.90
2019-02-09T19:58:51.116Z,1.91
2019-02-09T20:02:59.179Z,1.90
2019-02-09T20:07:07.176Z,1.81
2019-02-09T20:11:14.939Z,1.72
2019-02-09T20:15:22.666Z,1.82
2019-02-09T20:19:30.561Z,1.88
2019-02-09T20:23:38.173Z,1.63
2019-02-09T20:27:45.726Z,1.62
2019-02-09T20:31:53.637Z,1.38
2019-02-09T20:36:01.269Z,1.59
2019-02-09T20:40:14.195Z,1.42
2019-02-09T20:44:22.082Z,1.43
2019-02-09T20:48:30.065Z,1.53
2019-02-09T20:52:37.985Z,1.25
2019-02-09T20:56:45.537Z,1.35
2019-02-09T21:00:53.485Z,1.25
2019-02-09T21:05:01.433Z,1.27
2019-02-09T21:09:09.820Z,1.45
2019-02-09T21:13:17.762Z,1.52
2019-02-09T21:17:25.665Z,1.41
2019-02-09T21:21:33.362Z,1.06
2019-02-09T21:25:42.760Z,1.25
2019-02-09T21:29:50.731Z,1.24
2019-02-09T21:33:58.642Z,1.02
2019-02-09T21:38:07.641Z,1.04
2019-02-09T21:42:15.528Z,1.09
2019-02-09T21:46:23.124Z,1.03
2019-02-09T21:50:32.958Z,0.98
2019-02-09T21:54:40.493Z,1.00
2019-02-09T21:58:49.066Z,0.77
2019-02-09T22:02:57.063Z,0.98
2019-02-09T22:07:04.946Z,0.95
2019-02-09T22:11:12.911Z,1.00
2019-02-09T22:15:23.431Z,0.96
2019-02-09T22:19:30.961Z,0.87
2019-02-09T22:23:38.937Z,0.90
2019-02-09T22:27:47.423Z,0.70
2019-02-09T22:31:55.030Z,0.56
2019-02-09T22:36:02.596Z,0.76
2019-02-09T22:40:16.752Z,0.56
2019-02-09T22:44:24.671Z,0.56
2019-02-09T22:48:32.628Z,0.56
2019-02-09T22:52:40.512Z,0.45
2019-02-09T22:56:48.423Z,0.48
2019-02-09T23:01:42.984Z,0.44
2019-02-09T23:06:38.851Z,0.33
2019-02-09T23:10:46.737Z,0.48
2019-02-09T23:14:54.637Z,0.28
2019-02-09T23:19:03.030Z,0.27
2019-02-09T23:23:11.739Z,0.11
2019-02-09T23:27:19.644Z,0.21
2019-02-09T23:31:27.545Z,0.41
2019-02-09T23:35:35.432Z,0.27
2019-02-09T23:39:42.971Z,0.31
2019-02-09T23:43:50.896Z,0.27
2019-02-09T23:47:58.766Z,0.21
2019-02-09T23:52:06.659Z,0.11
2019-02-09T23:56:14.547Z,0.11
